Details for China Eastern Airlines at ZPPP




Go Back


Latest METAR
Local Time

ZPPP 022100Z 21005MPS CAVOK 12/08 Q1020 NOSIG
03/04/2020, 05:11:32

Description
Results
China Eastern Airlines Logo
Number of Pilots based at ZPPP
0 Pilots Based here
Number of China Eastern Airlines Flights Departed from ZPPP
4 Flights Departed
Number of China Eastern Airlines Flights Arrived at ZPPP
4 Flights Arrived
Number of China Eastern Airlines Schedules Departing from ZPPP
291 Schedules
Number of China Eastern Airlines Schedules Arriving at ZPPP
309 Schedules
Number of China Eastern Airlines Schedules Departing from ZPPP availible today
203 Schedules Today
Number of China Eastern Airlines Schedules Arriving at ZPPP availible today
204 Schedules Today
Average Landing Rate at ZPPP
-233 fpm
China Eastern Airlines Average Landing Rate at ZPPP
-214 fpm
Total Fuel Purchased at ZPPP by China Eastern Airlines
11,267.69 kgs / 24,840.75 lbs

Pilots Based at ZPPP


Pilot ID
Pilot Name
Pilot Rank
No. of Flights
No. of Flying Hours
There are no pilots assigned to this hub!   Will you be the first?